Nearby METAR Reports

 

KPMD - Palmdale, California, USA
Distance from station: NNE 12mi, 19km
Updated: Wed, 24-Apr-2019 8:53pm PDT
Clear
Clear
 Wind from SW
Wind: SW 16 mph , 26 km/h
Temperature: 73°F , 23°C
Dew Point: 45°F , 7°C
Humidity: 36%
Barometer: 29.98 inHg , 1015.2 hPa
Clouds: Clear
Visibility: 10 miles , 16 km
2019/04/25 03:53 KPMD 250353Z 22014KT 10SM CLR 23/07 A2998 RMK AO2 SLP127 T02330067
KWJF - Lancaster/Fox, California, USA
Distance from station: N 17mi, 27km
Updated: Wed, 24-Apr-2019 8:56pm PDT
Clear
Clear
 Wind from WSW
Wind: WSW 13 mph , 20 km/h
Temperature: 72°F , 22°C
Dew Point: 48°F , 9°C
Humidity: 44%
Barometer: 29.97 inHg , 1014.9 hPa
Clouds: Clear
Visibility: 10 miles , 16 km
2019/04/25 03:56 KWJF 250356Z 24011KT 10SM CLR 22/09 A2997 RMK AO2 SLP133 T02170089 $
 
KMWS - Mount Wilson, California, USA
Distance from station: SSE 18mi, 30km
Updated: Wed, 13-May-2015 6:45am PDT
NOT Current

 Wind from S
Wind: S 3 mph , 6 km/h, Gust: 5 mph , 7 km/h
Temperature: 43°F , 6°C
Dew Point: -0°F , -18°C
Humidity: 16%
2015/05/13 13:45 KMWS 131345Z 18003G04KT 06/M18 RMK SNOW DEPTH 1.00
KWHP - La / Whiteman, California, USA
Distance from station: SW 21mi, 34km
Updated: Wed, 24-Apr-2019 7:55pm PDT
NOT Current
Clear
Clear
 Wind from calm
Wind: Calm
Temperature: 72°F , 22°C
Dew Point: 50°F , 10°C
Humidity: 47%
Barometer: 29.97 inHg , 1014.9 hPa
Clouds: Clear
Visibility: 10 miles , 16 km
2019/04/25 02:55 KWHP 250255Z 00000KT 10SM SKC 22/10 A2997
 
KBUR - Burbank, California, USA
Distance from station: SSW 22mi, 35km
Updated: Wed, 24-Apr-2019 8:53pm PDT
Clear
Clear
 Wind from SE
Wind: SE 6 mph , 9 km/h
Temperature: 68°F , 20°C
Dew Point: 55°F , 13°C
Humidity: 64%
Barometer: 29.95 inHg , 1014.2 hPa
Clouds: Clear
Visibility: 10 miles , 16 km
2019/04/25 03:53 KBUR 250353Z 13005KT 10SM CLR 20/13 A2995 RMK AO2 SLP129 T02000133 $
KVNY - Van Nuys, California, USA
Distance from station: SW 25mi, 40km
Updated: Wed, 24-Apr-2019 8:51pm PDT
Clear
Clear
 Wind from E
Wind: E 6 mph , 9 km/h
Temperature: 70°F , 21°C
Dew Point: 48°F , 9°C
Humidity: 46%
Barometer: 29.94 inHg , 1013.9 hPa
Clouds: Clear
Visibility: 10 miles , 16 km
2019/04/25 03:51 KVNY 250351Z 09005KT 10SM CLR 21/09 A2994 RMK AO2 SLP131 T02110089
 
KEDW - Edwards Afb, California, USA
Distance from station: NNE 33mi, 53km
Updated: Wed, 24-Apr-2019 8:58pm PDT
Clear
Clear
 Wind from SW
Wind: SW 15 mph , 24 km/h
Temperature: 73°F , 23°C
Dew Point: 45°F , 7°C
Humidity: 36%
Barometer: 29.93 inHg , 1013.5 hPa
Clouds: Clear
Visibility: 50 miles , 80 km
2019/04/25 03:58 KEDW 250358Z 23013KT 50SM CLR 23/07 A2993 RMK AO2A SLP117 T02280065
KSMO - Santa Monica, California, USA
Distance from station: SSW 35mi, 57km
Updated: Wed, 24-Apr-2019 9:24pm PDT
Mist, Overcast
Mist, Overcast
 Wind from SW
Wind: SW 6 mph , 9 km/h
Temperature: 57°F , 14°C
Dew Point: 55°F , 13°C
Humidity: 94%
Barometer: 29.98 inHg , 1015.2 hPa
Summary: Mist
Clouds: Overcast
Visibility: 2 miles , 3 km
Cloud details: Overcast 200 ft
2019/04/25 04:24 KSMO 250424Z AUTO 22005KT 2SM BR OVC002 14/13 A2998 RMK AO2 VIS 1 1/2V4 T01390128
 
KLAX - Los Angeles, California, USA
Distance from station: SSW 39mi, 63km
Updated: Wed, 24-Apr-2019 8:53pm PDT
Mist, Overcast
Mist, Overcast
 Wind from W
Wind: W 7 mph , 11 km/h
Temperature: 57°F , 14°C
Dew Point: 55°F , 13°C
Humidity: 94%
Barometer: 29.96 inHg , 1014.6 hPa
Summary: Mist
Clouds: Overcast
Visibility: 3 miles , 5 km
Cloud details: Overcast 500 ft
2019/04/25 03:53 KLAX 250353Z 26006KT 3SM BR OVC005 14/13 A2996 RMK AO2 SLP145 T01440128
KMHV - Mojave, California, USA
Distance from station: N 41mi, 66km
Updated: Wed, 24-Apr-2019 9:00pm PDT
Clear
Clear
 Wind from W
Wind: W 10 mph , 17 km/h, Gust: 18 mph , 30 km/h
Temperature: 75°F , 24°C
Dew Point: 37°F , 3°C
Humidity: 25%
Barometer: 29.96 inHg , 1014.6 hPa
Clouds: Clear
Visibility: 10 miles , 16 km
2019/04/25 04:00 KMHV 250400Z AUTO 26009G16KT 10SM CLR 24/03 A2996 RMK A01
 
KFUL - Fullerton, California, USA
Distance from station: SSE 44mi, 70km
Updated: Wed, 24-Apr-2019 8:53pm PDT
Clear
Clear
 Wind from calm
Wind: Calm
Temperature: 61°F , 16°C
Dew Point: 55°F , 13°C
Humidity: 83%
Barometer: 29.95 inHg , 1014.2 hPa
Clouds: Clear
Visibility: 9 miles , 14 km
2019/04/25 03:53 KFUL 250353Z 00000KT 9SM CLR 16/13 A2995 RMK AO2 SLP141 T01610128
KONT - Ontario, California, USA
Distance from station: SE 45mi, 72km
Updated: Wed, 24-Apr-2019 8:53pm PDT
Clear
Clear
 Wind from W
Wind: W 8 mph , 13 km/h
Temperature: 73°F , 23°C
Dew Point: 48°F , 9°C
Humidity: 41%
Barometer: 29.95 inHg , 1014.2 hPa
Clouds: Clear
Visibility: 10 miles , 16 km
2019/04/25 03:53 KONT 250353Z 26007KT 10SM CLR 23/09 A2995 RMK AO2 SLP130 T02280094
 
KLGB - Long Beach, California, USA
Distance from station: S 46mi, 74km
Updated: Wed, 24-Apr-2019 8:53pm PDT
Clear
Clear
 Wind from NW
Wind: NW 5 mph , 7 km/h
Temperature: 61°F , 16°C
Dew Point: 55°F , 13°C
Humidity: 83%
Barometer: 29.96 inHg , 1014.6 hPa
Clouds: Clear
Visibility: 10 miles , 16 km
2019/04/25 03:53 KLGB 250353Z 32004KT 10SM CLR 16/13 A2996 RMK AO2 SLP145 T01610128
KVCV - Victorville, California, USA
Distance from station: E 46mi, 74km
Updated: Wed, 24-Apr-2019 7:54pm PDT
NOT Current
Clear
Clear
 Wind from WSW
Wind: WSW 12 mph , 19 km/h
Barometer: 29.97 inHg , 1014.9 hPa
Clouds: Clear
Visibility: 10 miles , 16 km
2019/04/25 02:54 KVCV 250254Z 25010KT 10SM SKC A2997
 
KTSP - Tehachapi, California, USA
Distance from station: NNW 48mi, 77km
Updated: Wed, 24-Apr-2019 9:35pm PDT
Clear
Clear
 Wind from W
Wind: W 3 mph , 6 km/h
Temperature: 59°F , 15°C
Dew Point: 39°F , 4°C
Humidity: 48%
Barometer: 30.08 inHg , 1018.6 hPa
Clouds: Clear
Visibility: 10 miles , 16 km
2019/04/25 04:35 KTSP 250435Z AUTO 28003KT 10SM CLR 15/04 A3008 RMK AO2